createdAt,value
2024-02-13T00:03:11.100Z,99870.47
2024-02-13T00:08:44.196Z,99873.13
2024-02-13T00:13:58.392Z,99884.50
2024-02-13T00:19:20.940Z,99905.73
2024-02-13T00:24:45.087Z,99899.66
2024-02-13T00:30:07.506Z,99914.64
2024-02-13T00:35:31.218Z,99917.30
2024-02-13T00:40:53.554Z,99925.36
2024-02-13T00:46:15.965Z,99924.31
2024-02-13T00:51:38.347Z,99935.69
2024-02-13T00:57:00.913Z,99937.49
2024-02-13T01:02:24.285Z,99950.77
2024-02-13T01:07:46.857Z,99955.98
2024-02-13T01:13:09.229Z,99957.69
2024-02-13T01:18:31.939Z,99961.98
2024-02-13T01:23:54.370Z,99969.86
2024-02-13T01:29:16.948Z,99983.80
2024-02-13T01:34:39.364Z,99981.05
2024-02-13T01:40:03.811Z,99989.77
2024-02-13T01:45:26.783Z,99987.98
2024-02-13T01:50:51.495Z,100012.48
2024-02-13T01:56:16.851Z,100022.81
2024-02-13T02:01:39.762Z,100025.32
2024-02-13T02:07:02.386Z,100029.41
2024-02-13T02:12:25.106Z,100028.39
2024-02-13T02:17:49.227Z,100056.48
2024-02-13T02:23:11.743Z,100042.95
2024-02-13T02:28:35.442Z,100052.53
2024-02-13T02:33:58.466Z,100050.63
2024-02-13T02:39:20.901Z,100063.63
2024-02-13T02:44:43.346Z,100065.28
2024-02-13T02:50:05.770Z,100072.11
2024-02-13T02:55:30.680Z,100077.23
2024-02-13T03:00:53.599Z,100085.81
2024-02-13T03:06:16.179Z,100095.91
2024-02-13T03:11:38.773Z,100097.62
2024-02-13T03:17:01.251Z,100103.69
2024-02-13T03:22:23.948Z,100105.34
2024-02-13T03:27:46.736Z,100129.93
2024-02-13T03:33:09.202Z,100134.01
2024-02-13T03:38:32.490Z,100153.32
2024-02-13T03:43:55.094Z,100155.78
2024-02-13T03:49:18.462Z,100162.66
2024-02-13T03:54:40.836Z,100168.55
2024-02-13T04:00:03.325Z,100177.19
2024-02-13T04:05:26.316Z,100188.42
2024-02-13T04:10:49.150Z,100196.22
2024-02-13T04:16:12.816Z,100208.56
2024-02-13T04:21:36.359Z,100217.34
2024-02-13T04:27:00.867Z,100222.47
2024-02-13T04:32:25.265Z,100229.31
2024-02-13T04:37:48.762Z,100223.92
2024-02-13T04:43:11.705Z,100239.70
2024-02-13T04:48:34.983Z,100243.12
2024-02-13T04:53:58.480Z,100252.05
2024-02-13T04:59:22.560Z,100250.91
2024-02-13T05:05:02.579Z,100253.41
2024-02-13T05:10:25.927Z,100260.34
2024-02-13T05:15:49.147Z,100277.77
2024-02-13T05:21:11.904Z,100269.79
2024-02-13T05:26:36.234Z,100285.56
2024-02-13T05:31:58.813Z,100295.36
2024-02-13T05:37:22.329Z,100299.64
2024-02-13T05:42:46.016Z,100304.01
2024-02-13T05:48:08.533Z,100320.92
2024-02-13T05:53:31.564Z,100324.34
2024-02-13T05:58:54.049Z,100331.38
2024-02-13T06:04:16.683Z,100342.13
2024-02-13T06:09:39.799Z,100347.30
2024-02-13T06:15:02.783Z,100362.22
2024-02-13T06:20:25.715Z,100373.81
2024-02-13T06:25:48.303Z,100382.81
2024-02-13T06:31:10.917Z,100391.74
2024-02-13T06:36:34.194Z,100396.20
2024-02-13T06:41:56.876Z,100397.92
2024-02-13T06:47:19.416Z,100415.55
2024-02-13T06:52:41.978Z,100435.80
2024-02-13T06:58:05.095Z,100442.84
2024-02-13T07:03:27.514Z,100460.34
2024-02-13T07:08:50.223Z,100461.80
2024-02-13T07:14:13.918Z,100477.45
2024-02-13T07:19:37.282Z,100472.61
2024-02-13T07:30:33.046Z,100494.00
2024-02-13T07:35:55.769Z,100506.45
2024-02-13T07:41:18.282Z,100519.77
2024-02-13T07:46:41.812Z,100519.95
2024-02-13T07:52:14.767Z,100529.04
2024-02-13T07:57:41.730Z,100529.33
2024-02-13T08:03:04.371Z,100542.28
2024-02-13T08:08:27.873Z,100546.14
2024-02-13T08:13:50.861Z,100557.47
2024-02-13T08:19:15.877Z,100563.22
2024-02-13T08:24:38.775Z,100571.21
2024-02-13T08:30:01.286Z,100580.58
2024-02-13T08:35:27.313Z,100597.34
2024-02-13T08:40:49.971Z,100598.44
2024-02-13T08:46:14.042Z,100618.91
2024-02-13T08:51:38.667Z,100623.23
2024-02-13T08:57:01.298Z,100638.27
2024-02-13T09:02:24.666Z,100641.79
2024-02-13T09:07:47.030Z,100669.12
2024-02-13T09:13:09.627Z,100687.63
2024-02-13T09:18:32.681Z,100676.69
2024-02-13T09:23:57.269Z,100697.16
2024-02-13T09:29:38.423Z,100702.67
2024-02-13T09:35:02.106Z,100723.28
2024-02-13T09:40:25.756Z,100724.50
